Stacja Pogody
Warszawa Praga-Północ

Szerokość 52°15'43"N Długość 21°01'22"E Wysokość 110m n.p.m.


209 dzień roku.   Do końca pozostalo 156 dni.   Od wczoraj ubyło 3 min. i 1 sek. dnia.
Wschód Słońca 04:50 Górowanie Słońca 12:42 Zachód Słońca 20:34 lew
Data juliańska 2457963.377 Odległość Słońca 151881770 km Średn. kątowa Słońca 0,315°
Wschód Księżyca 10:53 Zachód Księżyca 23:00 Wiek Księżyca 6 dni Moon
Widoczność Księżyca 32,18% Odległość Księżyca 392997 km Średn. kątowa Księżyca 0,304°
Dzień krótszy od najdłuższego o: 01:03 Długość dnia 15:44 Imieniny Aidy, Marceli, Wiktora



  Aktualizacja: 28-07-2017 21:01:06
TEMPERATURA
Aktualnie: 16.8°C ↓↓
Temperatura odczuwalna:21.2°C
Punkt rosy15.8°C
WIATR
Średnia prędkość: 5.0km/h ↑
Prędkość w podmuchach:7.2km/h
Przepływ w ciągu doby:120.6km
Kierunek wiatru:315°
CIŚNIENIE
Względne:1011.1hPa
Trend ciśnienia:powolny wzrost
WILGOTNOŚĆ
Wilgotność względna: 95% ↑
Podstawa chmur410m
DESZCZ
W ostatniej godzinie: 6.0mm
Dzisiaj:10.5mm
W tym miesiącu:57.9mm
METAR
EPWA 281830Z 18004KT 150V210 9999 FEW032 BKN042CB 16/15 Q1010 NOSIG
Ostrzeżenia burzowe
Prognoza 12-to godzinna (prawdopodobieństwo 75%):   Dobra pogoda prognoza





a  a a